sensor_id;sensor_type;location;lat;lon;timestamp;P1;durP1;ratioP1;P2;durP2;ratioP2
18076;SDS011;9165;45.714;11.362;2022-12-04T00:01:01;15.07;;;10.07;;
18076;SDS011;9165;45.714;11.362;2022-12-04T00:03:28;16.77;;;9.93;;
18076;SDS011;9165;45.714;11.362;2022-12-04T00:06:01;19.53;;;11.40;;
18076;SDS011;9165;45.714;11.362;2022-12-04T00:08:27;13.07;;;8.40;;
18076;SDS011;9165;45.714;11.362;2022-12-04T00:10:54;10.60;;;8.23;;
18076;SDS011;9165;45.714;11.362;2022-12-04T00:13:20;12.60;;;8.30;;
18076;SDS011;9165;45.714;11.362;2022-12-04T00:15:48;9.10;;;6.97;;
18076;SDS011;9165;45.714;11.362;2022-12-04T00:18:15;9.50;;;7.40;;
18076;SDS011;9165;45.714;11.362;2022-12-04T00:20:41;10.67;;;6.93;;
18076;SDS011;9165;45.714;11.362;2022-12-04T00:23:08;12.67;;;7.30;;
18076;SDS011;9165;45.714;11.362;2022-12-04T00:25:35;9.40;;;6.80;;
18076;SDS011;9165;45.714;11.362;2022-12-04T00:28:01;9.80;;;7.20;;
18076;SDS011;9165;45.714;11.362;2022-12-04T00:30:28;13.77;;;8.90;;
18076;SDS011;9165;45.714;11.362;2022-12-04T00:32:56;20.47;;;12.10;;
18076;SDS011;9165;45.714;11.362;2022-12-04T00:35:22;16.20;;;9.47;;
18076;SDS011;9165;45.714;11.362;2022-12-04T00:37:50;16.43;;;10.13;;
18076;SDS011;9165;45.714;11.362;2022-12-04T00:40:17;20.63;;;11.70;;
18076;SDS011;9165;45.714;11.362;2022-12-04T00:42:43;15.57;;;8.63;;
18076;SDS011;9165;45.714;11.362;2022-12-04T00:45:10;12.23;;;8.10;;
18076;SDS011;9165;45.714;11.362;2022-12-04T00:47:36;11.03;;;7.87;;
18076;SDS011;9165;45.714;11.362;2022-12-04T00:50:06;12.37;;;7.33;;
18076;SDS011;9165;45.714;11.362;2022-12-04T00:52:33;8.53;;;6.47;;
18076;SDS011;9165;45.714;11.362;2022-12-04T00:54:59;8.33;;;6.20;;
18076;SDS011;9165;45.714;11.362;2022-12-04T00:57:26;9.67;;;6.07;;
18076;SDS011;9165;45.714;11.362;2022-12-04T00:59:52;7.43;;;6.17;;
18076;SDS011;9165;45.714;11.362;2022-12-04T01:02:19;7.87;;;6.03;;
18076;SDS011;9165;45.714;11.362;2022-12-04T01:04:45;8.13;;;5.97;;
18076;SDS011;9165;45.714;11.362;2022-12-04T01:07:13;9.37;;;6.43;;
18076;SDS011;9165;45.714;11.362;2022-12-04T01:09:40;9.43;;;7.17;;
18076;SDS011;9165;45.714;11.362;2022-12-04T01:12:06;8.13;;;6.50;;
18076;SDS011;9165;45.714;11.362;2022-12-04T01:14:33;11.83;;;7.83;;
18076;SDS011;9165;45.714;11.362;2022-12-04T01:16:59;8.97;;;7.37;;
18076;SDS011;9165;45.714;11.362;2022-12-04T01:19:26;9.30;;;6.63;;
18076;SDS011;9165;45.714;11.362;2022-12-04T01:21:52;8.13;;;5.37;;
18076;SDS011;9165;45.714;11.362;2022-12-04T01:24:20;8.50;;;4.83;;
18076;SDS011;9165;45.714;11.362;2022-12-04T01:26:47;8.67;;;4.70;;
18076;SDS011;9165;45.714;11.362;2022-12-04T01:29:13;6.20;;;4.27;;
18076;SDS011;9165;45.714;11.362;2022-12-04T01:31:40;6.20;;;4.03;;
18076;SDS011;9165;45.714;11.362;2022-12-04T01:34:06;7.13;;;4.17;;
18076;SDS011;9165;45.714;11.362;2022-12-04T01:36:33;5.23;;;3.60;;
18076;SDS011;9165;45.714;11.362;2022-12-04T01:38:59;4.40;;;3.07;;
18076;SDS011;9165;45.714;11.362;2022-12-04T01:41:28;5.33;;;3.70;;
18076;SDS011;9165;45.714;11.362;2022-12-04T01:46:48;4.93;;;3.40;;
18076;SDS011;9165;45.714;11.362;2022-12-04T01:49:16;3.53;;;2.93;;
18076;SDS011;9165;45.714;11.362;2022-12-04T01:51:45;4.47;;;2.70;;
18076;SDS011;9165;45.714;11.362;2022-12-04T01:54:14;5.27;;;2.93;;
18076;SDS011;9165;45.714;11.362;2022-12-04T01:56:44;3.03;;;2.50;;
18076;SDS011;9165;45.714;11.362;2022-12-04T01:59:12;2.93;;;2.10;;
18076;SDS011;9165;45.714;11.362;2022-12-04T02:01:41;2.23;;;2.03;;
18076;SDS011;9165;45.714;11.362;2022-12-04T02:04:09;2.37;;;1.90;;
18076;SDS011;9165;45.714;11.362;2022-12-04T02:06:36;2.27;;;1.70;;
18076;SDS011;9165;45.714;11.362;2022-12-04T02:09:02;2.30;;;1.93;;
18076;SDS011;9165;45.714;11.362;2022-12-04T02:11:30;3.53;;;1.80;;
18076;SDS011;9165;45.714;11.362;2022-12-04T02:14:02;2.13;;;1.73;;
18076;SDS011;9165;45.714;11.362;2022-12-04T02:16:33;2.37;;;1.70;;
18076;SDS011;9165;45.714;11.362;2022-12-04T02:19:04;2.27;;;1.80;;
18076;SDS011;9165;45.714;11.362;2022-12-04T02:21:34;5.60;;;1.60;;
18076;SDS011;9165;45.714;11.362;2022-12-04T02:24:05;1.90;;;1.80;;
18076;SDS011;9165;45.714;11.362;2022-12-04T02:26:39;3.07;;;1.80;;
18076;SDS011;9165;45.714;11.362;2022-12-04T02:29:08;1.40;;;1.30;;
18076;SDS011;9165;45.714;11.362;2022-12-04T02:31:38;2.07;;;1.23;;
18076;SDS011;9165;45.714;11.362;2022-12-04T02:34:08;1.97;;;1.30;;
18076;SDS011;9165;45.714;11.362;2022-12-04T02:36:40;1.30;;;1.20;;
18076;SDS011;9165;45.714;11.362;2022-12-04T02:39:08;2.00;;;1.63;;
18076;SDS011;9165;45.714;11.362;2022-12-04T02:41:38;1.80;;;1.23;;
18076;SDS011;9165;45.714;11.362;2022-12-04T02:44:09;1.97;;;1.40;;
18076;SDS011;9165;45.714;11.362;2022-12-04T02:46:38;1.80;;;1.33;;
18076;SDS011;9165;45.714;11.362;2022-12-04T02:49:08;2.10;;;1.50;;
18076;SDS011;9165;45.714;11.362;2022-12-04T02:51:36;1.60;;;1.40;;
18076;SDS011;9165;45.714;11.362;2022-12-04T02:54:06;1.30;;;1.10;;
18076;SDS011;9165;45.714;11.362;2022-12-04T02:56:34;1.37;;;1.17;;
18076;SDS011;9165;45.714;11.362;2022-12-04T02:59:03;1.13;;;1.10;;
18076;SDS011;9165;45.714;11.362;2022-12-04T03:01:33;3.40;;;1.27;;
18076;SDS011;9165;45.714;11.362;2022-12-04T03:04:02;1.50;;;1.40;;
18076;SDS011;9165;45.714;11.362;2022-12-04T03:06:30;1.53;;;1.30;;
18076;SDS011;9165;45.714;11.362;2022-12-04T03:08:58;2.70;;;1.20;;
18076;SDS011;9165;45.714;11.362;2022-12-04T03:11:27;3.50;;;1.03;;
18076;SDS011;9165;45.714;11.362;2022-12-04T03:13:56;3.50;;;1.37;;
18076;SDS011;9165;45.714;11.362;2022-12-04T03:16:24;1.20;;;1.10;;
18076;SDS011;9165;45.714;11.362;2022-12-04T03:18:54;1.83;;;1.33;;
18076;SDS011;9165;45.714;11.362;2022-12-04T03:21:24;3.13;;;1.53;;
18076;SDS011;9165;45.714;11.362;2022-12-04T03:23:54;1.70;;;1.30;;
18076;SDS011;9165;45.714;11.362;2022-12-04T03:26:23;1.80;;;1.40;;
18076;SDS011;9165;45.714;11.362;2022-12-04T03:28:52;1.50;;;1.40;;
18076;SDS011;9165;45.714;11.362;2022-12-04T03:31:23;3.93;;;1.50;;
18076;SDS011;9165;45.714;11.362;2022-12-04T03:33:53;2.17;;;1.10;;
18076;SDS011;9165;45.714;11.362;2022-12-04T03:36:23;4.03;;;1.17;;
18076;SDS011;9165;45.714;11.362;2022-12-04T03:38:51;2.70;;;1.60;;
18076;SDS011;9165;45.714;11.362;2022-12-04T03:41:23;3.80;;;1.33;;
18076;SDS011;9165;45.714;11.362;2022-12-04T03:43:52;2.67;;;1.53;;
18076;SDS011;9165;45.714;11.362;2022-12-04T03:46:23;3.80;;;1.77;;
18076;SDS011;9165;45.714;11.362;2022-12-04T03:48:51;1.43;;;1.10;;
18076;SDS011;9165;45.714;11.362;2022-12-04T03:51:21;1.53;;;1.40;;
18076;SDS011;9165;45.714;11.362;2022-12-04T03:53:49;2.00;;;1.30;;
18076;SDS011;9165;45.714;11.362;2022-12-04T03:56:17;2.17;;;1.23;;
18076;SDS011;9165;45.714;11.362;2022-12-04T03:58:45;1.50;;;1.20;;
18076;SDS011;9165;45.714;11.362;2022-12-04T04:01:12;2.43;;;1.30;;
18076;SDS011;9165;45.714;11.362;2022-12-04T04:03:40;1.63;;;1.20;;
18076;SDS011;9165;45.714;11.362;2022-12-04T04:06:10;5.83;;;1.30;;
18076;SDS011;9165;45.714;11.362;2022-12-04T04:08:39;1.67;;;1.30;;
18076;SDS011;9165;45.714;11.362;2022-12-04T04:11:09;2.43;;;1.43;;
18076;SDS011;9165;45.714;11.362;2022-12-04T04:13:38;2.53;;;1.47;;
18076;SDS011;9165;45.714;11.362;2022-12-04T04:16:23;1.40;;;1.23;;
18076;SDS011;9165;45.714;11.362;2022-12-04T04:19:09;3.83;;;1.17;;
18076;SDS011;9165;45.714;11.362;2022-12-04T04:21:54;1.80;;;1.47;;
18076;SDS011;9165;45.714;11.362;2022-12-04T04:24:41;7.90;;;1.40;;
18076;SDS011;9165;45.714;11.362;2022-12-04T04:27:08;1.57;;;1.47;;
18076;SDS011;9165;45.714;11.362;2022-12-04T04:29:34;1.87;;;1.40;;
18076;SDS011;9165;45.714;11.362;2022-12-04T04:32:02;1.30;;;1.20;;
18076;SDS011;9165;45.714;11.362;2022-12-04T04:34:31;4.50;;;2.20;;
18076;SDS011;9165;45.714;11.362;2022-12-04T04:37:00;4.10;;;1.80;;
18076;SDS011;9165;45.714;11.362;2022-12-04T04:39:30;1.90;;;1.67;;
18076;SDS011;9165;45.714;11.362;2022-12-04T04:42:03;2.40;;;2.03;;
18076;SDS011;9165;45.714;11.362;2022-12-04T04:44:33;2.83;;;1.93;;
18076;SDS011;9165;45.714;11.362;2022-12-04T04:47:05;1.60;;;1.47;;
18076;SDS011;9165;45.714;11.362;2022-12-04T04:49:32;3.57;;;1.93;;
18076;SDS011;9165;45.714;11.362;2022-12-04T04:52:00;2.53;;;1.97;;
18076;SDS011;9165;45.714;11.362;2022-12-04T04:54:27;2.70;;;2.10;;
18076;SDS011;9165;45.714;11.362;2022-12-04T04:56:55;3.20;;;2.20;;
18076;SDS011;9165;45.714;11.362;2022-12-04T04:59:23;2.40;;;2.20;;
18076;SDS011;9165;45.714;11.362;2022-12-04T05:01:50;2.97;;;2.27;;
18076;SDS011;9165;45.714;11.362;2022-12-04T05:04:16;2.67;;;2.10;;
18076;SDS011;9165;45.714;11.362;2022-12-04T05:06:43;4.43;;;2.37;;
18076;SDS011;9165;45.714;11.362;2022-12-04T05:09:10;3.17;;;2.20;;
18076;SDS011;9165;45.714;11.362;2022-12-04T05:11:36;4.83;;;2.30;;
18076;SDS011;9165;45.714;11.362;2022-12-04T05:14:03;2.37;;;1.80;;
18076;SDS011;9165;45.714;11.362;2022-12-04T05:16:32;2.20;;;2.00;;
18076;SDS011;9165;45.714;11.362;2022-12-04T05:18:58;3.40;;;2.30;;
18076;SDS011;9165;45.714;11.362;2022-12-04T05:21:42;3.23;;;2.07;;
18076;SDS011;9165;45.714;11.362;2022-12-04T05:24:09;5.43;;;2.40;;
18076;SDS011;9165;45.714;11.362;2022-12-04T05:26:35;2.33;;;2.13;;
18076;SDS011;9165;45.714;11.362;2022-12-04T05:29:02;3.87;;;2.57;;
18076;SDS011;9165;45.714;11.362;2022-12-04T05:31:29;3.27;;;2.70;;
18076;SDS011;9165;45.714;11.362;2022-12-04T05:33:57;4.13;;;2.97;;
18076;SDS011;9165;45.714;11.362;2022-12-04T05:36:23;3.63;;;2.80;;
18076;SDS011;9165;45.714;11.362;2022-12-04T05:38:50;3.87;;;3.17;;
18076;SDS011;9165;45.714;11.362;2022-12-04T05:41:16;6.13;;;3.93;;
18076;SDS011;9165;45.714;11.362;2022-12-04T05:43:43;7.60;;;4.27;;
18076;SDS011;9165;45.714;11.362;2022-12-04T05:46:09;4.73;;;3.57;;
18076;SDS011;9165;45.714;11.362;2022-12-04T05:48:36;4.53;;;3.03;;
18076;SDS011;9165;45.714;11.362;2022-12-04T05:51:05;5.43;;;3.10;;
18076;SDS011;9165;45.714;11.362;2022-12-04T05:53:32;2.67;;;2.30;;
18076;SDS011;9165;45.714;11.362;2022-12-04T05:56:00;3.33;;;2.90;;
18076;SDS011;9165;45.714;11.362;2022-12-04T05:58:27;3.13;;;2.30;;
18076;SDS011;9165;45.714;11.362;2022-12-04T06:00:54;3.83;;;2.70;;
18076;SDS011;9165;45.714;11.362;2022-12-04T06:03:21;4.00;;;2.87;;
18076;SDS011;9165;45.714;11.362;2022-12-04T06:05:47;3.37;;;2.27;;
18076;SDS011;9165;45.714;11.362;2022-12-04T06:08:15;2.83;;;2.33;;
18076;SDS011;9165;45.714;11.362;2022-12-04T06:10:42;2.40;;;2.20;;
18076;SDS011;9165;45.714;11.362;2022-12-04T06:13:08;2.40;;;1.93;;
18076;SDS011;9165;45.714;11.362;2022-12-04T06:15:35;2.77;;;2.00;;
18076;SDS011;9165;45.714;11.362;2022-12-04T06:18:02;4.27;;;2.50;;
18076;SDS011;9165;45.714;11.362;2022-12-04T06:20:28;2.80;;;2.20;;
18076;SDS011;9165;45.714;11.362;2022-12-04T06:22:55;2.47;;;2.27;;
18076;SDS011;9165;45.714;11.362;2022-12-04T06:25:23;2.77;;;2.07;;
18076;SDS011;9165;45.714;11.362;2022-12-04T06:27:50;2.90;;;2.20;;
18076;SDS011;9165;45.714;11.362;2022-12-04T06:30:16;2.40;;;1.90;;
18076;SDS011;9165;45.714;11.362;2022-12-04T06:32:43;5.73;;;1.93;;
18076;SDS011;9165;45.714;11.362;2022-12-04T06:35:10;2.10;;;1.90;;
18076;SDS011;9165;45.714;11.362;2022-12-04T06:37:36;2.50;;;2.10;;
18076;SDS011;9165;45.714;11.362;2022-12-04T06:40:03;2.03;;;1.93;;
18076;SDS011;9165;45.714;11.362;2022-12-04T06:42:31;4.27;;;1.90;;
18076;SDS011;9165;45.714;11.362;2022-12-04T06:44:58;2.10;;;1.83;;
18076;SDS011;9165;45.714;11.362;2022-12-04T06:47:24;2.67;;;2.00;;
18076;SDS011;9165;45.714;11.362;2022-12-04T06:49:51;3.90;;;2.20;;
18076;SDS011;9165;45.714;11.362;2022-12-04T06:52:17;3.27;;;2.30;;
18076;SDS011;9165;45.714;11.362;2022-12-04T06:54:44;3.00;;;2.20;;
18076;SDS011;9165;45.714;11.362;2022-12-04T06:57:10;4.53;;;2.50;;
18076;SDS011;9165;45.714;11.362;2022-12-04T06:59:38;4.57;;;3.50;;
18076;SDS011;9165;45.714;11.362;2022-12-04T07:02:05;5.30;;;2.80;;
18076;SDS011;9165;45.714;11.362;2022-12-04T07:04:31;5.17;;;3.20;;
18076;SDS011;9165;45.714;11.362;2022-12-04T07:06:58;3.57;;;2.60;;
18076;SDS011;9165;45.714;11.362;2022-12-04T07:09:24;3.50;;;3.10;;
18076;SDS011;9165;45.714;11.362;2022-12-04T07:11:51;4.00;;;3.50;;
18076;SDS011;9165;45.714;11.362;2022-12-04T07:14:19;6.47;;;3.70;;
18076;SDS011;9165;45.714;11.362;2022-12-04T07:16:47;3.80;;;3.23;;
18076;SDS011;9165;45.714;11.362;2022-12-04T07:19:13;5.40;;;3.47;;
18076;SDS011;9165;45.714;11.362;2022-12-04T07:21:40;6.00;;;4.37;;
18076;SDS011;9165;45.714;11.362;2022-12-04T07:24:07;4.70;;;3.60;;
18076;SDS011;9165;45.714;11.362;2022-12-04T07:26:37;4.57;;;3.67;;
18076;SDS011;9165;45.714;11.362;2022-12-04T07:29:03;4.83;;;3.47;;
18076;SDS011;9165;45.714;11.362;2022-12-04T07:31:30;5.30;;;4.23;;
18076;SDS011;9165;45.714;11.362;2022-12-04T07:33:58;5.87;;;4.13;;
18076;SDS011;9165;45.714;11.362;2022-12-04T07:36:25;6.23;;;4.07;;
18076;SDS011;9165;45.714;11.362;2022-12-04T07:38:53;5.57;;;4.00;;
18076;SDS011;9165;45.714;11.362;2022-12-04T07:41:20;5.33;;;3.80;;
18076;SDS011;9165;45.714;11.362;2022-12-04T07:43:46;4.47;;;3.70;;
18076;SDS011;9165;45.714;11.362;2022-12-04T07:46:13;8.73;;;5.40;;
18076;SDS011;9165;45.714;11.362;2022-12-04T07:48:41;7.33;;;5.00;;
18076;SDS011;9165;45.714;11.362;2022-12-04T07:51:09;9.23;;;5.53;;
18076;SDS011;9165;45.714;11.362;2022-12-04T07:53:36;6.33;;;4.30;;
18076;SDS011;9165;45.714;11.362;2022-12-04T07:56:03;6.37;;;4.73;;
18076;SDS011;9165;45.714;11.362;2022-12-04T07:58:30;5.93;;;4.63;;
18076;SDS011;9165;45.714;11.362;2022-12-04T08:01:03;8.53;;;4.30;;
18076;SDS011;9165;45.714;11.362;2022-12-04T08:03:30;7.03;;;4.07;;
18076;SDS011;9165;45.714;11.362;2022-12-04T08:05:58;7.93;;;4.20;;
18076;SDS011;9165;45.714;11.362;2022-12-04T08:08:26;6.23;;;4.47;;
18076;SDS011;9165;45.714;11.362;2022-12-04T08:10:52;6.53;;;4.77;;
18076;SDS011;9165;45.714;11.362;2022-12-04T08:13:19;6.80;;;4.40;;
18076;SDS011;9165;45.714;11.362;2022-12-04T08:15:45;8.10;;;5.20;;
18076;SDS011;9165;45.714;11.362;2022-12-04T08:18:12;7.07;;;5.10;;
18076;SDS011;9165;45.714;11.362;2022-12-04T08:20:39;7.17;;;4.50;;
18076;SDS011;9165;45.714;11.362;2022-12-04T08:23:05;5.73;;;4.23;;
18076;SDS011;9165;45.714;11.362;2022-12-04T08:25:33;8.47;;;4.43;;
18076;SDS011;9165;45.714;11.362;2022-12-04T08:28:03;5.17;;;4.03;;
18076;SDS011;9165;45.714;11.362;2022-12-04T08:30:30;9.20;;;4.47;;
18076;SDS011;9165;45.714;11.362;2022-12-04T08:32:57;7.23;;;4.50;;
18076;SDS011;9165;45.714;11.362;2022-12-04T08:35:24;7.83;;;4.70;;
18076;SDS011;9165;45.714;11.362;2022-12-04T08:37:50;5.00;;;4.17;;
18076;SDS011;9165;45.714;11.362;2022-12-04T08:40:17;9.10;;;5.50;;
18076;SDS011;9165;45.714;11.362;2022-12-04T08:42:45;11.77;;;7.83;;
18076;SDS011;9165;45.714;11.362;2022-12-04T08:45:12;6.23;;;5.17;;
18076;SDS011;9165;45.714;11.362;2022-12-04T08:47:39;11.07;;;4.93;;
18076;SDS011;9165;45.714;11.362;2022-12-04T08:50:06;8.33;;;4.20;;
18076;SDS011;9165;45.714;11.362;2022-12-04T08:52:32;6.17;;;4.07;;
18076;SDS011;9165;45.714;11.362;2022-12-04T08:54:59;5.93;;;3.10;;
18076;SDS011;9165;45.714;11.362;2022-12-04T08:57:25;3.80;;;3.17;;
18076;SDS011;9165;45.714;11.362;2022-12-04T08:59:53;6.87;;;2.63;;
18076;SDS011;9165;45.714;11.362;2022-12-04T09:02:20;5.53;;;3.20;;
18076;SDS011;9165;45.714;11.362;2022-12-04T09:04:46;5.17;;;3.90;;
18076;SDS011;9165;45.714;11.362;2022-12-04T09:07:13;5.53;;;4.03;;
18076;SDS011;9165;45.714;11.362;2022-12-04T09:09:39;6.00;;;3.97;;
18076;SDS011;9165;45.714;11.362;2022-12-04T09:12:06;4.87;;;4.07;;
18076;SDS011;9165;45.714;11.362;2022-12-04T09:14:32;6.03;;;4.20;;
18076;SDS011;9165;45.714;11.362;2022-12-04T09:17:00;9.90;;;8.30;;
18076;SDS011;9165;45.714;11.362;2022-12-04T09:19:27;6.27;;;4.20;;
18076;SDS011;9165;45.714;11.362;2022-12-04T09:21:55;5.10;;;4.27;;
18076;SDS011;9165;45.714;11.362;2022-12-04T09:24:21;4.40;;;4.00;;
18076;SDS011;9165;45.714;11.362;2022-12-04T09:26:48;5.87;;;3.23;;
18076;SDS011;9165;45.714;11.362;2022-12-04T09:29:14;5.00;;;3.63;;
18076;SDS011;9165;45.714;11.362;2022-12-04T09:31:41;6.07;;;4.90;;
18076;SDS011;9165;45.714;11.362;2022-12-04T09:34:09;5.53;;;4.40;;
18076;SDS011;9165;45.714;11.362;2022-12-04T09:36:35;8.47;;;5.03;;
18076;SDS011;9165;45.714;11.362;2022-12-04T09:39:02;6.80;;;5.03;;
18076;SDS011;9165;45.714;11.362;2022-12-04T09:41:39;6.20;;;4.80;;
18076;SDS011;9165;45.714;11.362;2022-12-04T09:44:13;9.20;;;5.37;;
18076;SDS011;9165;45.714;11.362;2022-12-04T09:46:41;6.60;;;5.17;;
18076;SDS011;9165;45.714;11.362;2022-12-04T09:49:14;6.90;;;5.40;;
18076;SDS011;9165;45.714;11.362;2022-12-04T09:51:42;6.40;;;5.23;;
18076;SDS011;9165;45.714;11.362;2022-12-04T09:54:09;6.80;;;5.30;;
18076;SDS011;9165;45.714;11.362;2022-12-04T09:56:38;6.40;;;5.07;;
18076;SDS011;9165;45.714;11.362;2022-12-04T09:59:07;6.50;;;5.60;;
18076;SDS011;9165;45.714;11.362;2022-12-04T10:01:40;3.27;;;2.97;;
18076;SDS011;9165;45.714;11.362;2022-12-04T10:04:08;3.00;;;2.70;;
18076;SDS011;9165;45.714;11.362;2022-12-04T10:06:38;2.93;;;2.57;;
18076;SDS011;9165;45.714;11.362;2022-12-04T10:09:08;3.43;;;2.60;;
18076;SDS011;9165;45.714;11.362;2022-12-04T10:11:39;3.50;;;2.67;;
18076;SDS011;9165;45.714;11.362;2022-12-04T10:16:54;4.37;;;3.57;;
18076;SDS011;9165;45.714;11.362;2022-12-04T10:19:27;5.90;;;3.10;;
18076;SDS011;9165;45.714;11.362;2022-12-04T10:21:59;3.87;;;2.30;;
18076;SDS011;9165;45.714;11.362;2022-12-04T10:24:30;3.83;;;2.70;;
18076;SDS011;9165;45.714;11.362;2022-12-04T10:27:00;5.93;;;3.10;;
18076;SDS011;9165;45.714;11.362;2022-12-04T10:29:31;3.13;;;2.73;;
18076;SDS011;9165;45.714;11.362;2022-12-04T10:32:01;9.73;;;3.97;;
18076;SDS011;9165;45.714;11.362;2022-12-04T10:34:29;3.50;;;2.40;;
18076;SDS011;9165;45.714;11.362;2022-12-04T10:36:59;3.47;;;2.17;;
18076;SDS011;9165;45.714;11.362;2022-12-04T10:39:27;3.03;;;2.40;;
18076;SDS011;9165;45.714;11.362;2022-12-04T10:42:00;4.03;;;2.73;;
18076;SDS011;9165;45.714;11.362;2022-12-04T10:44:27;3.20;;;2.90;;
18076;SDS011;9165;45.714;11.362;2022-12-04T10:46:54;3.73;;;3.17;;
18076;SDS011;9165;45.714;11.362;2022-12-04T10:49:22;3.50;;;3.17;;
18076;SDS011;9165;45.714;11.362;2022-12-04T10:51:50;5.07;;;3.13;;
18076;SDS011;9165;45.714;11.362;2022-12-04T10:54:19;5.63;;;3.63;;
18076;SDS011;9165;45.714;11.362;2022-12-04T10:56:50;3.93;;;3.00;;
18076;SDS011;9165;45.714;11.362;2022-12-04T10:59:16;6.73;;;4.57;;
18076;SDS011;9165;45.714;11.362;2022-12-04T11:01:43;4.67;;;3.77;;
18076;SDS011;9165;45.714;11.362;2022-12-04T11:04:17;6.03;;;4.10;;
18076;SDS011;9165;45.714;11.362;2022-12-04T11:06:44;12.53;;;7.80;;
18076;SDS011;9165;45.714;11.362;2022-12-04T11:09:14;9.23;;;6.13;;
18076;SDS011;9165;45.714;11.362;2022-12-04T11:11:45;9.53;;;6.27;;
18076;SDS011;9165;45.714;11.362;2022-12-04T11:14:12;14.40;;;6.20;;
18076;SDS011;9165;45.714;11.362;2022-12-04T11:16:40;6.57;;;4.50;;
18076;SDS011;9165;45.714;11.362;2022-12-04T11:19:22;9.17;;;5.77;;
18076;SDS011;9165;45.714;11.362;2022-12-04T11:21:49;9.37;;;5.07;;
18076;SDS011;9165;45.714;11.362;2022-12-04T11:24:19;8.00;;;5.73;;
18076;SDS011;9165;45.714;11.362;2022-12-04T11:26:48;4.43;;;4.00;;
18076;SDS011;9165;45.714;11.362;2022-12-04T11:29:16;7.73;;;5.07;;
18076;SDS011;9165;45.714;11.362;2022-12-04T11:31:46;7.67;;;5.03;;
18076;SDS011;9165;45.714;11.362;2022-12-04T11:34:14;11.17;;;8.13;;
18076;SDS011;9165;45.714;11.362;2022-12-04T11:36:43;8.23;;;5.90;;
18076;SDS011;9165;45.714;11.362;2022-12-04T11:39:16;7.90;;;5.57;;
18076;SDS011;9165;45.714;11.362;2022-12-04T11:41:43;7.17;;;5.63;;
18076;SDS011;9165;45.714;11.362;2022-12-04T11:44:20;9.10;;;6.63;;
18076;SDS011;9165;45.714;11.362;2022-12-04T11:46:50;7.73;;;5.27;;
18076;SDS011;9165;45.714;11.362;2022-12-04T11:49:19;9.30;;;6.53;;
18076;SDS011;9165;45.714;11.362;2022-12-04T11:51:47;11.87;;;7.73;;
18076;SDS011;9165;45.714;11.362;2022-12-04T11:54:19;6.40;;;5.03;;
18076;SDS011;9165;45.714;11.362;2022-12-04T11:56:48;11.57;;;7.07;;
18076;SDS011;9165;45.714;11.362;2022-12-04T11:59:22;10.93;;;6.30;;
18076;SDS011;9165;45.714;11.362;2022-12-04T12:01:50;8.43;;;6.67;;
18076;SDS011;9165;45.714;11.362;2022-12-04T12:04:22;8.67;;;6.57;;
18076;SDS011;9165;45.714;11.362;2022-12-04T12:06:53;9.53;;;5.33;;
18076;SDS011;9165;45.714;11.362;2022-12-04T12:09:25;7.10;;;5.00;;
18076;SDS011;9165;45.714;11.362;2022-12-04T12:11:55;5.67;;;4.80;;
18076;SDS011;9165;45.714;11.362;2022-12-04T12:14:27;6.33;;;4.83;;
18076;SDS011;9165;45.714;11.362;2022-12-04T12:16:57;6.37;;;4.77;;
18076;SDS011;9165;45.714;11.362;2022-12-04T12:19:43;7.77;;;5.60;;
18076;SDS011;9165;45.714;11.362;2022-12-04T12:22:15;8.87;;;6.50;;
18076;SDS011;9165;45.714;11.362;2022-12-04T12:24:47;7.90;;;6.10;;
18076;SDS011;9165;45.714;11.362;2022-12-04T12:27:22;8.87;;;6.43;;
18076;SDS011;9165;45.714;11.362;2022-12-04T12:29:56;10.33;;;5.93;;
18076;SDS011;9165;45.714;11.362;2022-12-04T12:32:38;7.10;;;5.00;;
18076;SDS011;9165;45.714;11.362;2022-12-04T12:35:14;7.90;;;4.87;;
18076;SDS011;9165;45.714;11.362;2022-12-04T12:37:45;13.10;;;7.93;;
18076;SDS011;9165;45.714;11.362;2022-12-04T12:40:14;9.17;;;4.23;;
18076;SDS011;9165;45.714;11.362;2022-12-04T12:42:43;5.27;;;4.07;;
18076;SDS011;9165;45.714;11.362;2022-12-04T12:45:18;5.73;;;4.37;;
18076;SDS011;9165;45.714;11.362;2022-12-04T12:47:48;6.23;;;5.07;;
18076;SDS011;9165;45.714;11.362;2022-12-04T12:52:44;63.87;;;26.13;;
18076;SDS011;9165;45.714;11.362;2022-12-04T12:55:13;51.63;;;21.53;;
18076;SDS011;9165;45.714;11.362;2022-12-04T12:57:42;31.57;;;14.47;;
18076;SDS011;9165;45.714;11.362;2022-12-04T13:00:12;13.77;;;7.40;;
18076;SDS011;9165;45.714;11.362;2022-12-04T13:02:43;9.90;;;6.55;;
18076;SDS011;9165;45.714;11.362;2022-12-04T13:05:11;10.57;;;7.10;;
18076;SDS011;9165;45.714;11.362;2022-12-04T13:07:41;8.23;;;5.80;;
18076;SDS011;9165;45.714;11.362;2022-12-04T13:10:11;6.50;;;5.30;;
18076;SDS011;9165;45.714;11.362;2022-12-04T13:12:42;6.63;;;5.33;;
18076;SDS011;9165;45.714;11.362;2022-12-04T13:15:12;7.63;;;5.20;;
18076;SDS011;9165;45.714;11.362;2022-12-04T13:17:39;5.47;;;4.87;;
18076;SDS011;9165;45.714;11.362;2022-12-04T13:20:11;9.20;;;6.10;;
18076;SDS011;9165;45.714;11.362;2022-12-04T13:22:40;10.30;;;8.50;;
18076;SDS011;9165;45.714;11.362;2022-12-04T13:25:21;8.67;;;6.83;;
18076;SDS011;9165;45.714;11.362;2022-12-04T13:27:55;7.53;;;6.23;;
18076;SDS011;9165;45.714;11.362;2022-12-04T13:30:23;6.70;;;5.80;;
18076;SDS011;9165;45.714;11.362;2022-12-04T13:33:10;7.63;;;6.50;;
18076;SDS011;9165;45.714;11.362;2022-12-04T13:35:49;6.03;;;5.40;;
18076;SDS011;9165;45.714;11.362;2022-12-04T13:38:19;7.90;;;6.07;;
18076;SDS011;9165;45.714;11.362;2022-12-04T13:40:52;7.17;;;5.30;;
18076;SDS011;9165;45.714;11.362;2022-12-04T13:43:23;6.20;;;5.50;;
18076;SDS011;9165;45.714;11.362;2022-12-04T13:45:51;6.77;;;6.00;;
18076;SDS011;9165;45.714;11.362;2022-12-04T13:48:25;7.60;;;5.80;;
18076;SDS011;9165;45.714;11.362;2022-12-04T13:51:00;13.83;;;9.83;;
18076;SDS011;9165;45.714;11.362;2022-12-04T13:53:28;13.70;;;8.77;;
18076;SDS011;9165;45.714;11.362;2022-12-04T13:55:56;41.07;;;18.63;;
18076;SDS011;9165;45.714;11.362;2022-12-04T13:58:25;23.23;;;11.63;;
18076;SDS011;9165;45.714;11.362;2022-12-04T14:00:58;14.87;;;10.80;;
18076;SDS011;9165;45.714;11.362;2022-12-04T14:03:27;24.67;;;14.83;;
18076;SDS011;9165;45.714;11.362;2022-12-04T14:05:57;11.67;;;8.97;;
18076;SDS011;9165;45.714;11.362;2022-12-04T14:08:32;9.53;;;6.67;;
18076;SDS011;9165;45.714;11.362;2022-12-04T14:11:02;14.63;;;8.43;;
18076;SDS011;9165;45.714;11.362;2022-12-04T14:13:34;8.40;;;6.80;;
18076;SDS011;9165;45.714;11.362;2022-12-04T14:16:02;16.27;;;11.10;;
18076;SDS011;9165;45.714;11.362;2022-12-04T14:18:29;9.63;;;7.87;;
18076;SDS011;9165;45.714;11.362;2022-12-04T14:20:57;6.47;;;5.73;;
18076;SDS011;9165;45.714;11.362;2022-12-04T14:23:25;6.00;;;5.40;;
18076;SDS011;9165;45.714;11.362;2022-12-04T14:25:54;6.27;;;5.50;;
18076;SDS011;9165;45.714;11.362;2022-12-04T14:28:23;5.97;;;5.37;;
18076;SDS011;9165;45.714;11.362;2022-12-04T14:31:02;8.70;;;5.90;;
18076;SDS011;9165;45.714;11.362;2022-12-04T14:33:31;8.43;;;6.37;;
18076;SDS011;9165;45.714;11.362;2022-12-04T14:35:58;8.13;;;7.27;;
18076;SDS011;9165;45.714;11.362;2022-12-04T14:38:27;10.27;;;7.53;;
18076;SDS011;9165;45.714;11.362;2022-12-04T14:40:55;8.67;;;7.57;;
18076;SDS011;9165;45.714;11.362;2022-12-04T14:43:23;7.73;;;6.50;;
18076;SDS011;9165;45.714;11.362;2022-12-04T14:45:52;7.53;;;6.17;;
18076;SDS011;9165;45.714;11.362;2022-12-04T14:48:22;10.47;;;7.10;;
18076;SDS011;9165;45.714;11.362;2022-12-04T14:50:52;9.63;;;7.27;;
18076;SDS011;9165;45.714;11.362;2022-12-04T14:53:26;7.40;;;6.20;;
18076;SDS011;9165;45.714;11.362;2022-12-04T14:55:59;7.60;;;5.50;;
18076;SDS011;9165;45.714;11.362;2022-12-04T14:58:30;6.70;;;6.00;;
18076;SDS011;9165;45.714;11.362;2022-12-04T15:00:59;9.00;;;7.80;;
18076;SDS011;9165;45.714;11.362;2022-12-04T15:03:28;8.13;;;6.60;;